createdAt,value
2024-02-28T00:01:30.547Z,100464.09
2024-02-28T00:03:59.109Z,100463.88
2024-02-28T00:06:27.866Z,100458.31
2024-02-28T00:08:55.843Z,100457.53
2024-02-28T00:11:23.470Z,100467.50
2024-02-28T00:13:50.934Z,100474.31
2024-02-28T00:16:18.337Z,100481.84
2024-02-28T00:18:45.854Z,100484.81
2024-02-28T00:21:13.379Z,100484.00
2024-02-28T00:23:42.142Z,100477.31
2024-02-28T00:26:09.754Z,100488.56
2024-02-28T00:28:37.671Z,100486.69
2024-02-28T00:31:05.262Z,100484.31
2024-02-28T00:33:32.703Z,100488.38
2024-02-28T00:36:00.145Z,100488.72
2024-02-28T00:38:28.323Z,100489.75
2024-02-28T00:40:57.082Z,100484.88
2024-02-28T00:43:24.498Z,100490.56
2024-02-28T00:45:51.994Z,100498.41
2024-02-28T00:48:19.471Z,100498.47
2024-02-28T00:50:47.165Z,100491.16
2024-02-28T00:53:14.696Z,100491.13
2024-02-28T00:55:42.107Z,100496.13
2024-02-28T00:58:10.905Z,100501.16
2024-02-28T01:00:38.489Z,100503.13
2024-02-28T01:03:06.349Z,100505.78
2024-02-28T01:05:34.182Z,100506.22
2024-02-28T01:08:01.595Z,100504.53
2024-02-28T01:10:29.113Z,100502.38
2024-02-28T01:12:56.604Z,100505.06
2024-02-28T01:15:25.705Z,100508.59
2024-02-28T01:17:53.198Z,100506.63
2024-02-28T01:20:20.640Z,100510.84
2024-02-28T01:22:48.661Z,100509.03
2024-02-28T01:25:16.212Z,100494.41
2024-02-28T01:27:44.098Z,100489.81
2024-02-28T01:30:12.591Z,100481.31
2024-02-28T01:32:41.361Z,100480.16
2024-02-28T01:35:10.832Z,100473.59
2024-02-28T01:37:38.239Z,100465.38
2024-02-28T01:40:06.853Z,100468.72
2024-02-28T01:42:34.395Z,100464.94
2024-02-28T01:45:01.850Z,100466.88
2024-02-28T01:47:29.636Z,100468.84
2024-02-28T01:49:58.623Z,100469.03
2024-02-28T01:52:26.076Z,100467.84
2024-02-28T01:54:53.876Z,100479.19
2024-02-28T01:57:21.515Z,100470.09
2024-02-28T01:59:49.422Z,100464.09
2024-02-28T02:02:16.846Z,100468.13
2024-02-28T02:04:44.265Z,100472.78
2024-02-28T02:07:13.042Z,100461.78
2024-02-28T02:09:40.743Z,100470.88
2024-02-28T02:12:09.043Z,100473.44
2024-02-28T02:14:36.449Z,100463.66
2024-02-28T02:17:03.840Z,100466.41
2024-02-28T02:19:31.502Z,100467.19
2024-02-28T02:22:00.384Z,100463.47
2024-02-28T02:24:29.293Z,100465.09
2024-02-28T02:26:58.793Z,100467.03
2024-02-28T02:29:26.244Z,100468.56
2024-02-28T02:31:53.667Z,100471.19
2024-02-28T02:34:21.114Z,100470.13
2024-02-28T02:36:48.586Z,100470.16
2024-02-28T02:39:16.223Z,100478.91
2024-02-28T02:41:45.040Z,100463.91
2024-02-28T02:44:12.474Z,100469.31
2024-02-28T02:46:40.385Z,100472.53
2024-02-28T02:49:07.804Z,100472.44
2024-02-28T02:51:35.251Z,100466.75
2024-02-28T02:54:02.734Z,100463.56
2024-02-28T02:56:30.161Z,100482.84
2024-02-28T02:58:58.928Z,100484.47
2024-02-28T03:01:26.395Z,100466.09
2024-02-28T03:03:54.017Z,100480.00
2024-02-28T03:06:21.999Z,100485.06
2024-02-28T03:08:49.416Z,100478.78
2024-02-28T03:11:16.893Z,100488.75
2024-02-28T03:13:44.352Z,100491.91
2024-02-28T03:16:13.364Z,100489.44
2024-02-28T03:18:40.804Z,100500.03
2024-02-28T03:21:08.279Z,100500.50
2024-02-28T03:23:37.154Z,100497.66
2024-02-28T03:26:05.305Z,100506.66
2024-02-28T03:28:32.702Z,100507.22
2024-02-28T03:31:00.132Z,100510.34
2024-02-28T03:33:29.148Z,100509.41
2024-02-28T03:35:56.620Z,100502.16
2024-02-28T03:38:24.026Z,100514.44
2024-02-28T03:40:51.438Z,100520.16
2024-02-28T03:43:18.849Z,100516.59
2024-02-28T03:45:46.392Z,100522.44
2024-02-28T03:48:14.033Z,100526.25
2024-02-28T03:50:42.997Z,100531.03
2024-02-28T03:53:10.455Z,100546.34
2024-02-28T03:55:39.132Z,100541.00
2024-02-28T03:58:09.668Z,100542.38
2024-02-28T04:00:37.387Z,100550.69
2024-02-28T04:03:04.466Z,100553.72
2024-02-28T04:05:31.930Z,100564.84
2024-02-28T04:08:00.670Z,100558.66
2024-02-28T04:10:28.102Z,100562.25
2024-02-28T04:12:55.782Z,100563.03
2024-02-28T04:15:23.337Z,100584.25
2024-02-28T04:17:50.829Z,100582.66
2024-02-28T04:20:18.327Z,100593.84
2024-02-28T04:22:45.753Z,100600.06
2024-02-28T04:25:14.576Z,100603.44
2024-02-28T04:27:42.038Z,100596.44
2024-02-28T04:30:09.926Z,100607.44
2024-02-28T04:32:39.374Z,100594.28
2024-02-28T04:35:07.695Z,100610.13
2024-02-28T04:37:35.815Z,100610.53
2024-02-28T04:40:03.350Z,100613.50
2024-02-28T04:42:32.130Z,100618.13
2024-02-28T04:44:59.773Z,100616.50
2024-02-28T04:47:33.610Z,100617.41
2024-02-28T04:50:07.955Z,100617.84
2024-02-28T04:52:35.635Z,100616.94
2024-02-28T04:55:06.332Z,100611.63
2024-02-28T04:57:35.146Z,100622.34
2024-02-28T05:00:04.777Z,100623.72
2024-02-28T05:02:32.187Z,100629.09
2024-02-28T05:04:59.927Z,100631.66
2024-02-28T05:07:27.367Z,100632.78
2024-02-28T05:09:54.893Z,100630.19
2024-02-28T05:12:22.378Z,100633.31
2024-02-28T05:14:53.984Z,100628.28
2024-02-28T05:17:22.849Z,100623.44
2024-02-28T05:19:50.261Z,100627.41
2024-02-28T05:22:17.747Z,100633.75
2024-02-28T05:24:47.933Z,100628.28
2024-02-28T05:27:15.389Z,100635.56
2024-02-28T05:29:43.916Z,100634.50
2024-02-28T05:32:12.806Z,100631.91
2024-02-28T05:34:40.321Z,100640.50
2024-02-28T05:37:07.794Z,100638.00
2024-02-28T05:39:35.627Z,100648.31
2024-02-28T05:42:03.110Z,100644.44
2024-02-28T05:44:31.060Z,100640.34
2024-02-28T05:46:58.528Z,100652.84
2024-02-28T05:49:27.256Z,100654.69
2024-02-28T05:51:55.569Z,100665.09
2024-02-28T05:54:23.113Z,100663.94
2024-02-28T05:56:50.549Z,100678.63
2024-02-28T05:59:18.023Z,100671.72
2024-02-28T06:01:46.656Z,100672.78
2024-02-28T06:04:14.208Z,100670.06
2024-02-28T06:06:43.237Z,100671.06
2024-02-28T06:09:11.553Z,100672.78
2024-02-28T06:11:38.973Z,100680.38
2024-02-28T06:14:06.442Z,100686.53
2024-02-28T06:16:33.883Z,100687.53
2024-02-28T06:19:03.985Z,100688.00
2024-02-28T06:21:33.337Z,100692.94
2024-02-28T06:24:02.141Z,100685.06
2024-02-28T06:26:29.593Z,100691.53
2024-02-28T06:29:02.174Z,100695.63
2024-02-28T06:31:32.305Z,100692.72
2024-02-28T06:34:00.004Z,100696.97
2024-02-28T06:36:27.681Z,100713.44
2024-02-28T06:38:55.150Z,100704.09
2024-02-28T06:41:23.889Z,100705.00
2024-02-28T06:43:51.304Z,100711.91
2024-02-28T06:46:19.034Z,100722.75
2024-02-28T06:48:46.573Z,100721.50
2024-02-28T06:51:16.535Z,100719.41
2024-02-28T06:53:45.452Z,100713.00
2024-02-28T06:56:12.982Z,100716.84
2024-02-28T06:58:41.752Z,100720.78
2024-02-28T07:01:09.257Z,100718.50
2024-02-28T07:03:36.833Z,100719.41
2024-02-28T07:06:04.717Z,100726.59
2024-02-28T07:08:33.772Z,100731.47
2024-02-28T07:11:01.347Z,100736.28
2024-02-28T07:13:29.109Z,100731.97
2024-02-28T07:15:58.382Z,100727.72
2024-02-28T07:18:27.643Z,100731.47
2024-02-28T07:20:55.085Z,100722.22
2024-02-28T07:23:22.497Z,100726.69
2024-02-28T07:25:49.973Z,100723.00
2024-02-28T07:28:17.397Z,100730.06
2024-02-28T07:30:46.069Z,100734.72
2024-02-28T07:33:14.966Z,100738.47
2024-02-28T07:35:48.865Z,100739.63
2024-02-28T07:38:18.476Z,100737.16
2024-02-28T07:40:46.018Z,100744.97
2024-02-28T07:43:13.552Z,100743.72
2024-02-28T07:45:41.319Z,100741.09
2024-02-28T07:48:08.070Z,100744.78
2024-02-28T07:50:36.929Z,100751.19
2024-02-28T07:53:04.462Z,100756.00
2024-02-28T07:55:31.897Z,100760.16
2024-02-28T07:57:59.365Z,100764.09
2024-02-28T08:00:27.376Z,100763.59
2024-02-28T08:02:54.872Z,100778.22
2024-02-28T08:05:22.316Z,100770.50
2024-02-28T08:07:51.025Z,100775.41
2024-02-28T08:10:18.488Z,100787.72
2024-02-28T08:12:46.107Z,100781.09
2024-02-28T08:15:13.667Z,100775.53
2024-02-28T08:17:41.161Z,100781.00
2024-02-28T08:20:10.085Z,100779.56
2024-02-28T08:22:37.972Z,100780.38
2024-02-28T08:25:07.354Z,100780.59
2024-02-28T08:27:35.827Z,100783.19
2024-02-28T08:30:05.044Z,100788.31
2024-02-28T08:32:32.439Z,100786.88
2024-02-28T08:34:59.935Z,100795.59
2024-02-28T08:37:28.593Z,100797.78
2024-02-28T08:39:58.831Z,100805.97
2024-02-28T08:42:27.914Z,100790.47
2024-02-28T08:44:55.718Z,100798.25
2024-02-28T08:47:25.099Z,100800.16
2024-02-28T08:49:52.976Z,100801.16
2024-02-28T08:52:20.367Z,100798.75
2024-02-28T08:54:48.323Z,100801.56
2024-02-28T08:57:15.774Z,100800.75
2024-02-28T08:59:44.528Z,100802.97
2024-02-28T09:02:12.324Z,100813.53
2024-02-28T09:04:39.828Z,100813.94
2024-02-28T09:07:07.323Z,100812.75
2024-02-28T09:09:38.896Z,100807.72
2024-02-28T09:12:07.042Z,100812.97
2024-02-28T09:14:34.480Z,100819.47
2024-02-28T09:17:04.658Z,100820.09
2024-02-28T09:19:32.800Z,100810.22
2024-02-28T09:22:00.838Z,100820.00
2024-02-28T09:24:28.869Z,100828.50
2024-02-28T09:26:56.317Z,100825.56
2024-02-28T09:29:23.741Z,100812.00
2024-02-28T09:31:51.175Z,100823.78
2024-02-28T09:34:19.905Z,100829.13
2024-02-28T09:36:50.787Z,100841.56
2024-02-28T09:39:18.778Z,100845.41
2024-02-28T09:41:50.103Z,100838.56
2024-02-28T09:44:18.616Z,100845.88
2024-02-28T09:46:46.590Z,100848.28
2024-02-28T09:49:16.804Z,100860.56
2024-02-28T09:51:46.306Z,100863.19
2024-02-28T09:54:13.994Z,100857.44
2024-02-28T09:56:41.442Z,100867.09
2024-02-28T09:59:09.567Z,100860.75
2024-02-28T10:01:44.155Z,100868.94
2024-02-28T10:04:13.892Z,100872.88
2024-02-28T10:06:41.925Z,100872.03
2024-02-28T10:09:11.842Z,100871.66
2024-02-28T10:11:42.397Z,100873.97
2024-02-28T10:14:10.662Z,100871.31
2024-02-28T10:16:38.100Z,100875.94
2024-02-28T10:19:07.492Z,100884.63
2024-02-28T10:21:35.859Z,100886.16
2024-02-28T10:24:05.468Z,100879.66
2024-02-28T10:26:39.427Z,100885.22
2024-02-28T10:29:10.004Z,100896.19
2024-02-28T10:31:38.778Z,100893.97
2024-02-28T10:34:06.565Z,100904.44
2024-02-28T10:36:34.934Z,100900.38
2024-02-28T10:39:02.870Z,100910.19
2024-02-28T10:41:30.536Z,100903.09
2024-02-28T10:43:59.377Z,100912.16
2024-02-28T10:46:35.984Z,100913.59
2024-02-28T10:49:05.278Z,100915.72
2024-02-28T10:51:36.681Z,100917.03
2024-02-28T10:54:12.304Z,100932.19
2024-02-28T10:56:40.518Z,100922.56
2024-02-28T10:59:11.899Z,100926.94
2024-02-28T11:01:43.432Z,100925.19
2024-02-28T11:04:12.233Z,100918.78
2024-02-28T11:06:50.249Z,100926.34
2024-02-28T11:09:23.513Z,100917.84
2024-02-28T11:11:51.638Z,100926.94
2024-02-28T11:14:22.639Z,100920.16
2024-02-28T11:17:01.047Z,100918.50
2024-02-28T11:19:30.635Z,100920.31
2024-02-28T11:21:59.347Z,100923.41
2024-02-28T11:24:31.845Z,100929.19
2024-02-28T11:26:59.550Z,100921.13
2024-02-28T11:29:30.171Z,100924.00
2024-02-28T11:31:57.900Z,100919.28
2024-02-28T11:34:25.468Z,100922.56
2024-02-28T11:36:54.594Z,100917.38
2024-02-28T11:39:25.837Z,100923.19
2024-02-28T11:41:53.573Z,100918.91
2024-02-28T11:44:21.550Z,100916.72
2024-02-28T11:46:51.069Z,100929.41
2024-02-28T11:49:20.253Z,100925.03
2024-02-28T11:51:49.073Z,100920.53
2024-02-28T11:54:16.599Z,100927.28
2024-02-28T11:56:44.335Z,100934.59
2024-02-28T11:59:14.590Z,100938.66
2024-02-28T12:01:45.605Z,100933.50
2024-02-28T12:04:15.344Z,100931.63
2024-02-28T12:06:43.112Z,100928.53
2024-02-28T12:09:10.913Z,100944.66
2024-02-28T12:11:39.000Z,100935.34
2024-02-28T12:14:09.964Z,100930.16
2024-02-28T12:16:39.582Z,100921.78
2024-02-28T12:19:09.892Z,100921.78
2024-02-28T12:21:39.091Z,100929.66
2024-02-28T12:24:09.949Z,100934.19
2024-02-28T12:26:37.669Z,100934.41
2024-02-28T12:29:05.103Z,100936.06
2024-02-28T12:31:32.575Z,100932.75
2024-02-28T12:34:00.447Z,100936.13
2024-02-28T12:36:28.614Z,100939.63
2024-02-28T12:38:57.363Z,100930.34
2024-02-28T12:41:24.905Z,100928.50
2024-02-28T12:43:52.472Z,100925.00
2024-02-28T12:46:19.965Z,100935.44
2024-02-28T12:48:48.587Z,100939.19
2024-02-28T12:51:37.409Z,100928.66
2024-02-28T12:54:06.833Z,100928.97
2024-02-28T12:56:34.326Z,100924.72
2024-02-28T12:59:01.778Z,100924.66
2024-02-28T13:01:29.859Z,100922.13
2024-02-28T13:03:57.736Z,100921.09
2024-02-28T13:06:25.331Z,100929.22
2024-02-28T13:08:53.493Z,100924.78
2024-02-28T13:11:23.344Z,100924.44
2024-02-28T13:13:52.472Z,100929.63
2024-02-28T13:16:20.569Z,100925.06
2024-02-28T13:18:48.259Z,100928.25
2024-02-28T13:21:15.780Z,100928.81
2024-02-28T13:23:43.229Z,100920.25
2024-02-28T13:26:18.518Z,100921.28
2024-02-28T13:28:50.238Z,100931.34
2024-02-28T13:31:19.674Z,100928.53
2024-02-28T13:33:49.480Z,100929.47
2024-02-28T13:36:17.154Z,100926.84
2024-02-28T13:38:45.273Z,100928.72
2024-02-28T13:41:12.800Z,100929.03
2024-02-28T13:43:40.316Z,100920.16
2024-02-28T13:46:10.877Z,100925.44
2024-02-28T13:48:38.424Z,100917.13
2024-02-28T13:51:06.850Z,100929.16
2024-02-28T13:53:34.311Z,100927.97
2024-02-28T13:56:01.841Z,100924.28
2024-02-28T13:58:36.397Z,100934.09
2024-02-28T14:01:09.044Z,100936.13
2024-02-28T14:03:36.689Z,100930.69
2024-02-28T14:06:04.500Z,100933.78
2024-02-28T14:08:35.664Z,100933.09
2024-02-28T14:11:03.826Z,100925.25
2024-02-28T14:13:31.292Z,100925.25
2024-02-28T14:15:58.812Z,100921.03
2024-02-28T14:18:27.597Z,100926.25
2024-02-28T14:20:55.024Z,100931.84
2024-02-28T14:23:22.483Z,100916.47
2024-02-28T14:25:49.913Z,100918.28
2024-02-28T14:28:19.150Z,100914.03
2024-02-28T14:30:49.637Z,100920.50
2024-02-28T14:33:17.169Z,100915.06
2024-02-28T14:35:46.032Z,100919.44
2024-02-28T14:38:13.474Z,100920.34
2024-02-28T14:40:41.586Z,100914.75
2024-02-28T14:43:09.562Z,100907.72
2024-02-28T14:45:39.950Z,100903.31
2024-02-28T14:48:09.413Z,100895.38
2024-02-28T14:50:36.928Z,100900.28
2024-02-28T14:53:06.010Z,100901.63
2024-02-28T14:55:33.440Z,100906.25
2024-02-28T14:58:01.476Z,100906.22
2024-02-28T15:00:29.707Z,100903.94
2024-02-28T15:02:57.407Z,100905.19
2024-02-28T15:05:25.812Z,100909.75
2024-02-28T15:07:53.296Z,100919.34
2024-02-28T15:10:22.203Z,100908.50
2024-02-28T15:12:49.791Z,100911.19
2024-02-28T15:15:17.308Z,100912.63
2024-02-28T15:17:45.857Z,100906.44
2024-02-28T15:20:13.467Z,100911.06
2024-02-28T15:22:40.906Z,100909.28
2024-02-28T15:25:09.937Z,100902.53
2024-02-28T15:27:38.795Z,100904.63
2024-02-28T15:30:08.037Z,100904.31
2024-02-28T15:32:35.547Z,100907.97
2024-02-28T15:35:03.067Z,100910.66
2024-02-28T15:37:30.567Z,100906.25
2024-02-28T15:39:58.001Z,100906.56
2024-02-28T15:42:25.756Z,100902.91
2024-02-28T15:44:54.514Z,100915.63
2024-02-28T15:47:23.104Z,100903.94
2024-02-28T15:49:50.544Z,100910.13
2024-02-28T15:52:18.054Z,100911.63
2024-02-28T15:54:45.684Z,100898.59
2024-02-28T15:57:13.106Z,100904.19
2024-02-28T15:59:41.602Z,100905.50
2024-02-28T16:02:12.891Z,100910.00
2024-02-28T16:04:40.491Z,100915.06
2024-02-28T16:07:08.683Z,100914.44
2024-02-28T16:09:37.722Z,100913.22
2024-02-28T16:12:05.751Z,100907.16
2024-02-28T16:14:33.185Z,100914.44
2024-02-28T16:17:00.586Z,100913.09
2024-02-28T16:19:29.384Z,100917.09
2024-02-28T16:21:57.037Z,100917.09
2024-02-28T16:24:24.671Z,100912.41
2024-02-28T16:26:52.233Z,100927.16
2024-02-28T16:29:20.809Z,100922.09
2024-02-28T16:31:50.376Z,100919.44
2024-02-28T16:34:20.496Z,100919.84
2024-02-28T16:36:49.924Z,100922.63
2024-02-28T16:39:19.052Z,100920.88
2024-02-28T16:41:46.700Z,100921.81
2024-02-28T16:44:14.168Z,100922.25
2024-02-28T16:46:41.654Z,100926.09
2024-02-28T16:49:09.254Z,100925.59
2024-02-28T16:51:38.923Z,100929.41
2024-02-28T16:54:08.752Z,100919.28
2024-02-28T16:56:36.159Z,100933.50
2024-02-28T16:59:03.624Z,100928.75
2024-02-28T17:01:31.203Z,100930.59
2024-02-28T17:03:59.154Z,100930.31
2024-02-28T17:06:26.684Z,100939.97
2024-02-28T17:08:54.202Z,100943.34
2024-02-28T17:11:23.069Z,100944.91
2024-02-28T17:13:50.551Z,100940.50
2024-02-28T17:16:18.633Z,100939.25
2024-02-28T17:18:46.266Z,100951.44
2024-02-28T17:21:13.840Z,100947.47
2024-02-28T17:23:41.296Z,100945.59
2024-02-28T17:26:08.800Z,100947.59
2024-02-28T17:28:37.546Z,100945.97
2024-02-28T17:31:05.428Z,100953.94
2024-02-28T17:33:32.964Z,100950.47
2024-02-28T17:36:00.441Z,100949.22
2024-02-28T17:38:27.858Z,100950.06
2024-02-28T17:40:55.409Z,100957.53
2024-02-28T17:43:23.184Z,100959.28
2024-02-28T17:45:54.601Z,100960.75
2024-02-28T17:48:22.105Z,100967.13
2024-02-28T17:50:51.010Z,100966.06
2024-02-28T17:53:18.416Z,100967.84
2024-02-28T17:55:45.811Z,100964.81
2024-02-28T17:58:13.293Z,100963.25
2024-02-28T18:00:40.807Z,100964.91
2024-02-28T18:03:09.610Z,100963.25
2024-02-28T18:05:37.028Z,100967.84
2024-02-28T18:08:04.758Z,100973.38
2024-02-28T18:10:32.204Z,100973.66
2024-02-28T18:13:00.910Z,100964.50
2024-02-28T18:15:28.791Z,100984.97
2024-02-28T18:17:56.256Z,100980.69
2024-02-28T18:20:25.151Z,100975.28
2024-02-28T18:22:52.569Z,100980.47
2024-02-28T18:25:20.309Z,100985.72
2024-02-28T18:27:47.817Z,100977.81
2024-02-28T18:30:16.419Z,100979.22
2024-02-28T18:32:45.882Z,100982.53
2024-02-28T18:35:15.555Z,100975.31
2024-02-28T18:37:44.332Z,100990.44
2024-02-28T18:40:16.534Z,100986.19
2024-02-28T18:42:44.396Z,100974.84
2024-02-28T18:45:12.377Z,100983.19
2024-02-28T18:47:41.397Z,100982.16
2024-02-28T18:50:09.645Z,100981.34
2024-02-28T18:52:37.065Z,100989.47
2024-02-28T18:55:06.748Z,100997.59
2024-02-28T18:57:34.225Z,100993.06
2024-02-28T19:00:01.672Z,100986.69
2024-02-28T19:02:30.582Z,100995.78
2024-02-28T19:04:57.998Z,101000.19
2024-02-28T19:07:25.416Z,100999.16
2024-02-28T19:09:53.682Z,100999.94
2024-02-28T19:12:22.458Z,101001.19
2024-02-28T19:14:49.875Z,101004.16
2024-02-28T19:17:17.426Z,101008.69
2024-02-28T19:19:44.888Z,101009.13
2024-02-28T19:22:12.341Z,101007.00
2024-02-28T19:24:39.889Z,101013.84
2024-02-28T19:27:07.321Z,101013.78
2024-02-28T19:29:37.579Z,101009.88
2024-02-28T19:32:05.546Z,101008.44
2024-02-28T19:34:32.954Z,100999.31
2024-02-28T19:37:00.592Z,101007.41
2024-02-28T19:39:28.059Z,101005.13
2024-02-28T19:41:57.238Z,101003.03
2024-02-28T19:44:24.727Z,100999.38
2024-02-28T19:46:53.455Z,100995.38
2024-02-28T19:49:20.891Z,101002.63
2024-02-28T19:51:48.358Z,101002.09
2024-02-28T19:54:16.042Z,100993.41
2024-02-28T19:56:43.555Z,100999.53
2024-02-28T19:59:11.016Z,100994.38
2024-02-28T20:01:38.594Z,100990.03
2024-02-28T20:04:07.538Z,100992.53
2024-02-28T20:06:42.308Z,100991.56
2024-02-28T20:09:09.859Z,100997.72
2024-02-28T20:11:37.486Z,101005.34
2024-02-28T20:14:04.998Z,101004.59
2024-02-28T20:16:32.687Z,101006.28
2024-02-28T20:19:00.208Z,100993.69
2024-02-28T20:21:31.324Z,100995.31
2024-02-28T20:23:58.949Z,101001.78
2024-02-28T20:26:26.763Z,100990.09
2024-02-28T20:28:54.853Z,101008.09
2024-02-28T20:31:23.100Z,101006.19
2024-02-28T20:33:51.054Z,101007.78
2024-02-28T20:36:18.766Z,101005.31
2024-02-28T20:38:48.610Z,100999.38
2024-02-28T20:41:18.094Z,101004.34
2024-02-28T20:43:45.554Z,101002.38
2024-02-28T20:46:13.030Z,101005.66
2024-02-28T20:48:42.195Z,100996.78
2024-02-28T20:51:09.827Z,100996.22
2024-02-28T20:53:39.671Z,101002.47
2024-02-28T20:56:09.627Z,100996.88
2024-02-28T20:58:37.500Z,101006.28
2024-02-28T21:01:05.767Z,101000.81
2024-02-28T21:03:33.422Z,101001.13
2024-02-28T21:06:00.916Z,100997.84
2024-02-28T21:08:28.329Z,100997.41
2024-02-28T21:10:55.764Z,100997.44
2024-02-28T21:13:24.550Z,100986.00
2024-02-28T21:15:51.965Z,100989.97
2024-02-28T21:18:19.485Z,100989.41
2024-02-28T21:20:46.890Z,100987.50
2024-02-28T21:23:14.371Z,100979.81
2024-02-28T21:25:41.848Z,100978.75
2024-02-28T21:28:09.373Z,100976.53
2024-02-28T21:30:38.568Z,100983.59
2024-02-28T21:33:06.720Z,100978.91
2024-02-28T21:35:34.178Z,100981.94
2024-02-28T21:38:01.568Z,100979.47
2024-02-28T21:40:30.214Z,100988.50
2024-02-28T21:42:57.899Z,100985.50
2024-02-28T21:45:25.447Z,100977.84
2024-02-28T21:47:56.246Z,100982.41
2024-02-28T21:50:23.976Z,100982.25
2024-02-28T21:52:52.423Z,100981.25
2024-02-28T21:55:20.021Z,100980.34
2024-02-28T21:57:47.480Z,100981.72
2024-02-28T22:00:15.624Z,100974.19
2024-02-28T22:02:43.026Z,100982.13
2024-02-28T22:05:11.742Z,100977.22
2024-02-28T22:07:39.144Z,100974.63
2024-02-28T22:10:07.725Z,100972.81
2024-02-28T22:12:37.669Z,100969.56
2024-02-28T22:15:08.911Z,100974.41
2024-02-28T22:17:36.386Z,100977.56
2024-02-28T22:20:04.104Z,100960.66
2024-02-28T22:22:32.827Z,100962.31
2024-02-28T22:25:00.418Z,100965.81
2024-02-28T22:27:27.992Z,100973.88
2024-02-28T22:29:57.153Z,100965.63
2024-02-28T22:32:25.937Z,100962.38
2024-02-28T22:34:53.381Z,100964.09
2024-02-28T22:37:20.798Z,100962.69
2024-02-28T22:39:49.551Z,100962.50
2024-02-28T22:42:16.994Z,100963.03
2024-02-28T22:44:45.825Z,100960.06
2024-02-28T22:47:13.432Z,100957.75
2024-02-28T22:49:41.633Z,100957.09
2024-02-28T22:52:09.262Z,100961.88
2024-02-28T22:54:36.960Z,100961.56
2024-02-28T22:57:06.326Z,100962.88
2024-02-28T22:59:33.723Z,100964.22
2024-02-28T23:02:01.315Z,100970.59
2024-02-28T23:04:28.788Z,100964.03
2024-02-28T23:06:56.811Z,100967.78
2024-02-28T23:09:24.293Z,100971.31
2024-02-28T23:11:51.685Z,100963.28
2024-02-28T23:14:20.422Z,100968.50
2024-02-28T23:16:47.828Z,100952.09
2024-02-28T23:19:15.326Z,100954.75
2024-02-28T23:21:44.246Z,100950.38
2024-02-28T23:24:11.987Z,100952.97
2024-02-28T23:26:39.374Z,100955.47
2024-02-28T23:29:06.809Z,100950.81
2024-02-28T23:31:35.731Z,100953.25
2024-02-28T23:34:03.233Z,100952.41
2024-02-28T23:36:30.794Z,100947.56
2024-02-28T23:38:58.635Z,100949.41
2024-02-28T23:41:26.049Z,100954.47
2024-02-28T23:43:55.188Z,100951.50
2024-02-28T23:46:24.824Z,100932.00
2024-02-28T23:48:53.557Z,100940.91
2024-02-28T23:51:20.982Z,100942.06
2024-02-28T23:53:48.403Z,100945.66
2024-02-28T23:56:15.808Z,100937.94
2024-02-28T23:58:43.385Z,100930.94
